sensor_id;sensor_type;location;lat;lon;timestamp;temperature;humidity
43858;DHT22;29507;51.284;5.758;2022-11-15T00:01:47;8.80;99.90
43858;DHT22;29507;51.284;5.758;2022-11-15T00:04:12;8.80;99.90
43858;DHT22;29507;51.284;5.758;2022-11-15T00:06:38;8.90;99.90
43858;DHT22;29507;51.284;5.758;2022-11-15T00:09:03;9.00;99.90
43858;DHT22;29507;51.284;5.758;2022-11-15T00:11:29;9.00;99.90
43858;DHT22;29507;51.284;5.758;2022-11-15T00:13:56;9.10;99.90
43858;DHT22;29507;51.284;5.758;2022-11-15T00:16:22;9.10;99.90
43858;DHT22;29507;51.284;5.758;2022-11-15T00:18:48;9.20;99.90
43858;DHT22;29507;51.284;5.758;2022-11-15T00:21:14;9.20;99.90
43858;DHT22;29507;51.284;5.758;2022-11-15T00:23:40;9.20;99.90
43858;DHT22;29507;51.284;5.758;2022-11-15T00:26:06;9.20;99.90
43858;DHT22;29507;51.284;5.758;2022-11-15T00:28:31;9.20;99.90
43858;DHT22;29507;51.284;5.758;2022-11-15T00:31:05;9.20;99.90
43858;DHT22;29507;51.284;5.758;2022-11-15T00:33:31;9.20;99.90
43858;DHT22;29507;51.284;5.758;2022-11-15T00:36:04;9.20;99.90
43858;DHT22;29507;51.284;5.758;2022-11-15T00:38:31;9.20;99.90
43858;DHT22;29507;51.284;5.758;2022-11-15T00:40:57;9.10;99.90
43858;DHT22;29507;51.284;5.758;2022-11-15T00:43:23;9.10;99.90
43858;DHT22;29507;51.284;5.758;2022-11-15T00:45:49;9.10;99.90
43858;DHT22;29507;51.284;5.758;2022-11-15T00:48:14;9.10;99.90
43858;DHT22;29507;51.284;5.758;2022-11-15T00:50:40;9.10;99.90
43858;DHT22;29507;51.284;5.758;2022-11-15T00:53:05;9.10;99.90
43858;DHT22;29507;51.284;5.758;2022-11-15T00:55:31;9.10;99.90
43858;DHT22;29507;51.284;5.758;2022-11-15T00:57:56;9.20;99.90
43858;DHT22;29507;51.284;5.758;2022-11-15T01:00:22;9.10;99.90
43858;DHT22;29507;51.284;5.758;2022-11-15T01:02:48;9.20;99.90
43858;DHT22;29507;51.284;5.758;2022-11-15T01:05:13;9.20;99.90
43858;DHT22;29507;51.284;5.758;2022-11-15T01:07:39;9.30;99.90
43858;DHT22;29507;51.284;5.758;2022-11-15T01:10:05;9.30;99.90
43858;DHT22;29507;51.284;5.758;2022-11-15T01:12:31;9.40;99.90
43858;DHT22;29507;51.284;5.758;2022-11-15T01:14:57;9.40;99.90
43858;DHT22;29507;51.284;5.758;2022-11-15T01:17:22;9.40;99.90
43858;DHT22;29507;51.284;5.758;2022-11-15T01:19:48;9.40;99.90
43858;DHT22;29507;51.284;5.758;2022-11-15T01:22:14;9.50;99.90
43858;DHT22;29507;51.284;5.758;2022-11-15T01:24:40;9.50;99.90
43858;DHT22;29507;51.284;5.758;2022-11-15T01:27:05;9.50;99.90
43858;DHT22;29507;51.284;5.758;2022-11-15T01:29:31;9.50;99.90
43858;DHT22;29507;51.284;5.758;2022-11-15T01:31:56;9.50;99.90
43858;DHT22;29507;51.284;5.758;2022-11-15T01:34:22;9.50;99.90
43858;DHT22;29507;51.284;5.758;2022-11-15T01:36:48;9.40;99.90
43858;DHT22;29507;51.284;5.758;2022-11-15T01:39:13;9.50;99.90
43858;DHT22;29507;51.284;5.758;2022-11-15T01:41:39;9.50;99.90
43858;DHT22;29507;51.284;5.758;2022-11-15T01:47:23;9.70;99.90
43858;DHT22;29507;51.284;5.758;2022-11-15T01:49:58;9.70;99.90
43858;DHT22;29507;51.284;5.758;2022-11-15T01:52:27;9.80;99.90
43858;DHT22;29507;51.284;5.758;2022-11-15T01:55:12;9.80;99.90
43858;DHT22;29507;51.284;5.758;2022-11-15T01:57:41;9.80;99.90
43858;DHT22;29507;51.284;5.758;2022-11-15T02:00:08;9.90;99.90
43858;DHT22;29507;51.284;5.758;2022-11-15T02:02:36;9.90;99.90
43858;DHT22;29507;51.284;5.758;2022-11-15T02:05:03;9.90;99.90
43858;DHT22;29507;51.284;5.758;2022-11-15T02:07:30;9.90;99.90
43858;DHT22;29507;51.284;5.758;2022-11-15T02:09:58;10.00;99.90
43858;DHT22;29507;51.284;5.758;2022-11-15T02:12:27;9.90;99.90
43858;DHT22;29507;51.284;5.758;2022-11-15T02:14:54;10.00;99.90
43858;DHT22;29507;51.284;5.758;2022-11-15T02:17:41;10.10;99.90
43858;DHT22;29507;51.284;5.758;2022-11-15T02:29:10;10.10;99.90
43858;DHT22;29507;51.284;5.758;2022-11-15T02:32:06;10.10;99.90
43858;DHT22;29507;51.284;5.758;2022-11-15T02:37:44;10.10;99.90
43858;DHT22;29507;51.284;5.758;2022-11-15T02:40:19;10.20;99.90
43858;DHT22;29507;51.284;5.758;2022-11-15T02:42:59;10.20;99.90
43858;DHT22;29507;51.284;5.758;2022-11-15T02:45:51;10.20;99.90
43858;DHT22;29507;51.284;5.758;2022-11-15T02:48:19;10.20;99.90
43858;DHT22;29507;51.284;5.758;2022-11-15T02:50:47;10.20;99.90
43858;DHT22;29507;51.284;5.758;2022-11-15T02:53:14;10.20;99.90
43858;DHT22;29507;51.284;5.758;2022-11-15T02:55:48;10.20;99.90
43858;DHT22;29507;51.284;5.758;2022-11-15T02:58:37;10.20;99.90
43858;DHT22;29507;51.284;5.758;2022-11-15T03:06:49;10.30;99.90
43858;DHT22;29507;51.284;5.758;2022-11-15T03:11:59;10.30;99.90
43858;DHT22;29507;51.284;5.758;2022-11-15T03:14:39;10.40;99.90
43858;DHT22;29507;51.284;5.758;2022-11-15T03:17:26;10.40;99.90
43858;DHT22;29507;51.284;5.758;2022-11-15T03:19:58;10.40;99.90
43858;DHT22;29507;51.284;5.758;2022-11-15T03:22:27;10.40;99.90
43858;DHT22;29507;51.284;5.758;2022-11-15T03:24:57;10.40;99.90
43858;DHT22;29507;51.284;5.758;2022-11-15T03:27:28;10.40;99.90
43858;DHT22;29507;51.284;5.758;2022-11-15T03:29:59;10.50;99.90
43858;DHT22;29507;51.284;5.758;2022-11-15T03:32:29;10.50;99.90
43858;DHT22;29507;51.284;5.758;2022-11-15T03:34:58;10.50;99.90
43858;DHT22;29507;51.284;5.758;2022-11-15T03:37:40;10.50;99.90
43858;DHT22;29507;51.284;5.758;2022-11-15T03:40:07;10.50;99.90
43858;DHT22;29507;51.284;5.758;2022-11-15T03:43:16;10.60;99.90
43858;DHT22;29507;51.284;5.758;2022-11-15T03:45:43;10.60;99.90
43858;DHT22;29507;51.284;5.758;2022-11-15T03:48:21;10.60;99.90
43858;DHT22;29507;51.284;5.758;2022-11-15T03:50:48;10.60;99.90
43858;DHT22;29507;51.284;5.758;2022-11-15T03:53:14;10.70;99.90
43858;DHT22;29507;51.284;5.758;2022-11-15T03:55:40;10.70;99.90
43858;DHT22;29507;51.284;5.758;2022-11-15T03:58:06;10.70;99.90
43858;DHT22;29507;51.284;5.758;2022-11-15T04:00:31;10.80;99.90
43858;DHT22;29507;51.284;5.758;2022-11-15T04:02:57;10.80;99.90
43858;DHT22;29507;51.284;5.758;2022-11-15T04:05:23;10.80;99.90
43858;DHT22;29507;51.284;5.758;2022-11-15T04:07:48;10.70;99.90
43858;DHT22;29507;51.284;5.758;2022-11-15T04:10:14;10.70;99.90
43858;DHT22;29507;51.284;5.758;2022-11-15T04:12:42;10.80;99.90
43858;DHT22;29507;51.284;5.758;2022-11-15T04:15:14;10.80;99.90
43858;DHT22;29507;51.284;5.758;2022-11-15T04:20:14;10.70;99.90
43858;DHT22;29507;51.284;5.758;2022-11-15T04:22:59;10.70;99.90
43858;DHT22;29507;51.284;5.758;2022-11-15T04:25:45;10.60;99.90
43858;DHT22;29507;51.284;5.758;2022-11-15T04:28:11;10.60;99.90
43858;DHT22;29507;51.284;5.758;2022-11-15T04:30:37;10.60;99.90
43858;DHT22;29507;51.284;5.758;2022-11-15T04:33:03;10.60;99.90
43858;DHT22;29507;51.284;5.758;2022-11-15T04:35:29;10.60;99.90
43858;DHT22;29507;51.284;5.758;2022-11-15T04:37:56;10.60;99.90
43858;DHT22;29507;51.284;5.758;2022-11-15T04:40:21;10.70;99.90
43858;DHT22;29507;51.284;5.758;2022-11-15T04:42:47;10.70;99.90
43858;DHT22;29507;51.284;5.758;2022-11-15T04:45:13;10.70;99.90
43858;DHT22;29507;51.284;5.758;2022-11-15T04:47:38;10.70;99.90
43858;DHT22;29507;51.284;5.758;2022-11-15T04:50:04;10.60;99.90
43858;DHT22;29507;51.284;5.758;2022-11-15T04:52:31;10.70;99.90
43858;DHT22;29507;51.284;5.758;2022-11-15T04:54:57;10.70;99.90
43858;DHT22;29507;51.284;5.758;2022-11-15T04:57:22;10.70;99.90
43858;DHT22;29507;51.284;5.758;2022-11-15T04:59:48;10.60;99.90
43858;DHT22;29507;51.284;5.758;2022-11-15T05:02:14;10.60;99.90
43858;DHT22;29507;51.284;5.758;2022-11-15T05:04:40;10.60;99.90
43858;DHT22;29507;51.284;5.758;2022-11-15T05:07:06;10.60;99.90
43858;DHT22;29507;51.284;5.758;2022-11-15T05:09:31;10.60;99.90
43858;DHT22;29507;51.284;5.758;2022-11-15T05:11:57;10.60;99.90
43858;DHT22;29507;51.284;5.758;2022-11-15T05:14:22;10.70;99.90
43858;DHT22;29507;51.284;5.758;2022-11-15T05:16:48;10.70;99.90
43858;DHT22;29507;51.284;5.758;2022-11-15T05:19:14;10.70;99.90
43858;DHT22;29507;51.284;5.758;2022-11-15T05:21:42;10.70;99.90
43858;DHT22;29507;51.284;5.758;2022-11-15T05:24:09;10.70;99.90
43858;DHT22;29507;51.284;5.758;2022-11-15T05:26:35;10.70;99.90
43858;DHT22;29507;51.284;5.758;2022-11-15T05:29:01;10.70;99.90
43858;DHT22;29507;51.284;5.758;2022-11-15T05:31:26;10.70;99.90
43858;DHT22;29507;51.284;5.758;2022-11-15T05:33:53;10.70;99.90
43858;DHT22;29507;51.284;5.758;2022-11-15T05:36:41;10.70;99.90
43858;DHT22;29507;51.284;5.758;2022-11-15T05:39:07;10.70;99.90
43858;DHT22;29507;51.284;5.758;2022-11-15T05:41:37;10.70;99.90
43858;DHT22;29507;51.284;5.758;2022-11-15T05:44:06;10.70;99.90
43858;DHT22;29507;51.284;5.758;2022-11-15T05:46:33;10.70;99.90
43858;DHT22;29507;51.284;5.758;2022-11-15T05:49:00;10.70;99.90
43858;DHT22;29507;51.284;5.758;2022-11-15T05:51:27;10.80;99.90
43858;DHT22;29507;51.284;5.758;2022-11-15T05:53:57;10.80;99.90
43858;DHT22;29507;51.284;5.758;2022-11-15T05:56:23;10.80;99.90
43858;DHT22;29507;51.284;5.758;2022-11-15T05:58:49;10.80;99.90
43858;DHT22;29507;51.284;5.758;2022-11-15T06:01:15;10.80;99.90
43858;DHT22;29507;51.284;5.758;2022-11-15T06:03:40;10.90;99.90
43858;DHT22;29507;51.284;5.758;2022-11-15T06:06:06;10.80;99.90
43858;DHT22;29507;51.284;5.758;2022-11-15T06:08:31;10.80;99.90
43858;DHT22;29507;51.284;5.758;2022-11-15T06:11:06;10.80;99.90
43858;DHT22;29507;51.284;5.758;2022-11-15T06:13:32;10.70;99.90
43858;DHT22;29507;51.284;5.758;2022-11-15T06:15:58;10.70;99.90
43858;DHT22;29507;51.284;5.758;2022-11-15T06:18:23;10.80;99.90
43858;DHT22;29507;51.284;5.758;2022-11-15T06:20:49;10.70;99.90
43858;DHT22;29507;51.284;5.758;2022-11-15T06:23:15;10.70;99.90
43858;DHT22;29507;51.284;5.758;2022-11-15T06:25:40;10.60;99.90
43858;DHT22;29507;51.284;5.758;2022-11-15T06:28:06;10.60;99.90
43858;DHT22;29507;51.284;5.758;2022-11-15T06:30:31;10.50;99.90
43858;DHT22;29507;51.284;5.758;2022-11-15T06:33:04;10.50;99.90
43858;DHT22;29507;51.284;5.758;2022-11-15T06:35:33;10.50;99.90
43858;DHT22;29507;51.284;5.758;2022-11-15T06:38:07;10.40;99.90
43858;DHT22;29507;51.284;5.758;2022-11-15T06:40:34;10.30;99.90
43858;DHT22;29507;51.284;5.758;2022-11-15T06:43:01;10.30;99.90
43858;DHT22;29507;51.284;5.758;2022-11-15T06:45:27;10.20;99.90
43858;DHT22;29507;51.284;5.758;2022-11-15T06:47:52;10.20;99.90
43858;DHT22;29507;51.284;5.758;2022-11-15T06:50:19;10.10;99.90
43858;DHT22;29507;51.284;5.758;2022-11-15T06:52:44;10.10;99.90
43858;DHT22;29507;51.284;5.758;2022-11-15T06:55:10;10.00;99.90
43858;DHT22;29507;51.284;5.758;2022-11-15T06:57:36;10.00;99.90
43858;DHT22;29507;51.284;5.758;2022-11-15T07:00:05;9.90;99.90
43858;DHT22;29507;51.284;5.758;2022-11-15T07:02:31;9.90;99.90
43858;DHT22;29507;51.284;5.758;2022-11-15T07:04:56;9.80;99.90
43858;DHT22;29507;51.284;5.758;2022-11-15T07:07:22;9.80;99.90
43858;DHT22;29507;51.284;5.758;2022-11-15T07:09:47;9.80;99.90
43858;DHT22;29507;51.284;5.758;2022-11-15T07:12:13;9.80;99.90
43858;DHT22;29507;51.284;5.758;2022-11-15T07:14:39;9.80;99.90
43858;DHT22;29507;51.284;5.758;2022-11-15T07:17:05;9.80;99.90
43858;DHT22;29507;51.284;5.758;2022-11-15T07:19:31;9.80;99.90
43858;DHT22;29507;51.284;5.758;2022-11-15T07:21:56;9.80;99.90
43858;DHT22;29507;51.284;5.758;2022-11-15T07:24:22;9.80;99.90
43858;DHT22;29507;51.284;5.758;2022-11-15T07:26:51;9.80;99.90
43858;DHT22;29507;51.284;5.758;2022-11-15T07:29:17;9.90;99.90
43858;DHT22;29507;51.284;5.758;2022-11-15T07:31:42;9.80;99.90
43858;DHT22;29507;51.284;5.758;2022-11-15T07:34:08;9.80;99.90
43858;DHT22;29507;51.284;5.758;2022-11-15T07:36:35;9.90;99.90
43858;DHT22;29507;51.284;5.758;2022-11-15T07:39:00;9.90;99.90
43858;DHT22;29507;51.284;5.758;2022-11-15T07:41:26;9.90;99.90
43858;DHT22;29507;51.284;5.758;2022-11-15T07:43:52;9.90;99.90
43858;DHT22;29507;51.284;5.758;2022-11-15T07:46:18;9.90;99.90
43858;DHT22;29507;51.284;5.758;2022-11-15T07:48:43;9.90;99.90
43858;DHT22;29507;51.284;5.758;2022-11-15T07:51:13;10.00;99.90
43858;DHT22;29507;51.284;5.758;2022-11-15T07:53:39;10.10;99.90
43858;DHT22;29507;51.284;5.758;2022-11-15T07:56:08;10.10;99.90
43858;DHT22;29507;51.284;5.758;2022-11-15T07:58:34;10.10;99.90
43858;DHT22;29507;51.284;5.758;2022-11-15T08:01:04;10.20;99.90
43858;DHT22;29507;51.284;5.758;2022-11-15T08:03:30;10.20;99.90
43858;DHT22;29507;51.284;5.758;2022-11-15T08:05:55;10.30;99.90
43858;DHT22;29507;51.284;5.758;2022-11-15T08:08:21;10.30;99.90
43858;DHT22;29507;51.284;5.758;2022-11-15T08:10:46;10.30;99.90
43858;DHT22;29507;51.284;5.758;2022-11-15T08:13:12;10.30;99.90
43858;DHT22;29507;51.284;5.758;2022-11-15T08:15:38;10.30;99.90
43858;DHT22;29507;51.284;5.758;2022-11-15T08:18:09;10.40;99.90
43858;DHT22;29507;51.284;5.758;2022-11-15T08:20:35;10.40;99.90
43858;DHT22;29507;51.284;5.758;2022-11-15T08:23:02;10.40;99.90
43858;DHT22;29507;51.284;5.758;2022-11-15T08:25:31;10.40;99.90
43858;DHT22;29507;51.284;5.758;2022-11-15T08:28:00;10.40;99.90
43858;DHT22;29507;51.284;5.758;2022-11-15T08:30:26;10.40;99.90
43858;DHT22;29507;51.284;5.758;2022-11-15T08:32:52;10.50;99.90
43858;DHT22;29507;51.284;5.758;2022-11-15T08:35:19;10.50;99.90
43858;DHT22;29507;51.284;5.758;2022-11-15T08:37:46;10.50;99.90
43858;DHT22;29507;51.284;5.758;2022-11-15T08:40:12;10.50;99.90
43858;DHT22;29507;51.284;5.758;2022-11-15T08:42:39;10.50;99.90
43858;DHT22;29507;51.284;5.758;2022-11-15T08:45:05;10.50;99.90
43858;DHT22;29507;51.284;5.758;2022-11-15T08:47:31;10.40;99.90
43858;DHT22;29507;51.284;5.758;2022-11-15T08:49:57;10.40;99.90
43858;DHT22;29507;51.284;5.758;2022-11-15T08:52:22;10.40;99.90
43858;DHT22;29507;51.284;5.758;2022-11-15T08:54:48;10.50;99.90
43858;DHT22;29507;51.284;5.758;2022-11-15T08:57:14;10.60;99.90
43858;DHT22;29507;51.284;5.758;2022-11-15T08:59:39;10.60;99.90
43858;DHT22;29507;51.284;5.758;2022-11-15T09:02:05;10.70;99.90
43858;DHT22;29507;51.284;5.758;2022-11-15T09:04:31;10.70;99.90
43858;DHT22;29507;51.284;5.758;2022-11-15T09:06:56;10.70;99.90
43858;DHT22;29507;51.284;5.758;2022-11-15T09:09:22;10.80;99.90
43858;DHT22;29507;51.284;5.758;2022-11-15T09:11:47;10.80;99.90
43858;DHT22;29507;51.284;5.758;2022-11-15T09:14:14;10.80;99.90
43858;DHT22;29507;51.284;5.758;2022-11-15T09:16:40;10.80;99.90
43858;DHT22;29507;51.284;5.758;2022-11-15T09:19:06;10.80;99.90
43858;DHT22;29507;51.284;5.758;2022-11-15T09:21:32;10.80;99.90
43858;DHT22;29507;51.284;5.758;2022-11-15T09:23:58;10.80;99.90
43858;DHT22;29507;51.284;5.758;2022-11-15T09:26:23;10.90;99.90
43858;DHT22;29507;51.284;5.758;2022-11-15T09:28:49;10.90;99.90
43858;DHT22;29507;51.284;5.758;2022-11-15T09:31:15;11.00;99.90
43858;DHT22;29507;51.284;5.758;2022-11-15T09:33:43;11.10;99.90
43858;DHT22;29507;51.284;5.758;2022-11-15T09:36:09;11.10;99.90
43858;DHT22;29507;51.284;5.758;2022-11-15T09:38:35;11.10;99.90
43858;DHT22;29507;51.284;5.758;2022-11-15T09:49:52;11.40;99.90
43858;DHT22;29507;51.284;5.758;2022-11-15T09:52:19;11.60;99.90
43858;DHT22;29507;51.284;5.758;2022-11-15T09:54:48;12.20;99.90
43858;DHT22;29507;51.284;5.758;2022-11-15T10:03:16;13.20;99.90
43858;DHT22;29507;51.284;5.758;2022-11-15T10:05:47;13.60;99.90
43858;DHT22;29507;51.284;5.758;2022-11-15T10:08:18;13.80;99.90
43858;DHT22;29507;51.284;5.758;2022-11-15T10:10:59;14.00;99.90
43858;DHT22;29507;51.284;5.758;2022-11-15T10:13:26;13.70;99.90
43858;DHT22;29507;51.284;5.758;2022-11-15T10:15:56;13.20;99.90
43858;DHT22;29507;51.284;5.758;2022-11-15T10:19:19;12.90;99.90
43858;DHT22;29507;51.284;5.758;2022-11-15T10:24:26;12.90;99.90
43858;DHT22;29507;51.284;5.758;2022-11-15T10:26:54;12.90;99.90
43858;DHT22;29507;51.284;5.758;2022-11-15T10:29:21;12.80;99.90
43858;DHT22;29507;51.284;5.758;2022-11-15T10:31:47;12.50;99.90
43858;DHT22;29507;51.284;5.758;2022-11-15T10:34:21;12.40;99.90
43858;DHT22;29507;51.284;5.758;2022-11-15T10:39:19;12.40;99.90
43858;DHT22;29507;51.284;5.758;2022-11-15T10:41:44;12.30;99.90
43858;DHT22;29507;51.284;5.758;2022-11-15T10:46:43;12.30;99.90
43858;DHT22;29507;51.284;5.758;2022-11-15T10:51:54;12.30;99.90
43858;DHT22;29507;51.284;5.758;2022-11-15T10:56:55;12.40;99.90
43858;DHT22;29507;51.284;5.758;2022-11-15T10:59:30;12.50;99.90
43858;DHT22;29507;51.284;5.758;2022-11-15T11:01:57;12.70;99.90
43858;DHT22;29507;51.284;5.758;2022-11-15T11:04:23;12.90;99.90
43858;DHT22;29507;51.284;5.758;2022-11-15T11:06:54;13.20;99.90
43858;DHT22;29507;51.284;5.758;2022-11-15T11:09:31;13.40;99.90
43858;DHT22;29507;51.284;5.758;2022-11-15T11:11:58;13.50;99.90
43858;DHT22;29507;51.284;5.758;2022-11-15T11:14:26;13.60;99.90
43858;DHT22;29507;51.284;5.758;2022-11-15T11:20:10;14.10;99.90
43858;DHT22;29507;51.284;5.758;2022-11-15T11:22:55;14.20;99.90
43858;DHT22;29507;51.284;5.758;2022-11-15T11:31:35;14.00;99.90
43858;DHT22;29507;51.284;5.758;2022-11-15T11:34:47;13.90;99.90
43858;DHT22;29507;51.284;5.758;2022-11-15T11:37:33;13.70;99.90
43858;DHT22;29507;51.284;5.758;2022-11-15T11:48:51;14.00;99.90
43858;DHT22;29507;51.284;5.758;2022-11-15T11:51:42;14.10;99.90
43858;DHT22;29507;51.284;5.758;2022-11-15T11:56:44;14.00;99.90
43858;DHT22;29507;51.284;5.758;2022-11-15T12:02:14;13.80;99.50
43858;DHT22;29507;51.284;5.758;2022-11-15T12:04:43;13.90;98.80
43858;DHT22;29507;51.284;5.758;2022-11-15T12:07:27;14.10;97.50
43858;DHT22;29507;51.284;5.758;2022-11-15T12:12:50;15.10;95.00
43858;DHT22;29507;51.284;5.758;2022-11-15T12:15:24;16.00;92.50
43858;DHT22;29507;51.284;5.758;2022-11-15T12:17:51;16.20;91.10
43858;DHT22;29507;51.284;5.758;2022-11-15T12:20:20;16.40;90.60
43858;DHT22;29507;51.284;5.758;2022-11-15T12:23:12;17.10;89.80
43858;DHT22;29507;51.284;5.758;2022-11-15T12:33:37;15.70;84.50
43858;DHT22;29507;51.284;5.758;2022-11-15T12:36:05;15.00;88.40
43858;DHT22;29507;51.284;5.758;2022-11-15T12:38:54;15.00;90.30
43858;DHT22;29507;51.284;5.758;2022-11-15T12:41:21;15.30;89.60
43858;DHT22;29507;51.284;5.758;2022-11-15T12:43:48;15.80;88.80
43858;DHT22;29507;51.284;5.758;2022-11-15T12:51:22;16.70;85.40
43858;DHT22;29507;51.284;5.758;2022-11-15T12:53:48;16.90;83.80
43858;DHT22;29507;51.284;5.758;2022-11-15T13:06:55;14.90;89.00
43858;DHT22;29507;51.284;5.758;2022-11-15T13:12:49;14.30;91.20
43858;DHT22;29507;51.284;5.758;2022-11-15T13:17:24;13.80;93.20
43858;DHT22;29507;51.284;5.758;2022-11-15T13:27:47;13.50;95.20
43858;DHT22;29507;51.284;5.758;2022-11-15T13:30:19;13.50;96.00
43858;DHT22;29507;51.284;5.758;2022-11-15T13:32:44;13.60;95.90
43858;DHT22;29507;51.284;5.758;2022-11-15T13:35:28;13.60;96.40
43858;DHT22;29507;51.284;5.758;2022-11-15T13:37:55;13.60;97.00
43858;DHT22;29507;51.284;5.758;2022-11-15T13:40:28;13.60;97.50
43858;DHT22;29507;51.284;5.758;2022-11-15T13:42:56;13.50;98.40
43858;DHT22;29507;51.284;5.758;2022-11-15T13:45:23;13.50;99.60
43858;DHT22;29507;51.284;5.758;2022-11-15T13:47:56;13.40;99.90
43858;DHT22;29507;51.284;5.758;2022-11-15T13:50:30;13.30;99.90
43858;DHT22;29507;51.284;5.758;2022-11-15T13:53:00;13.20;99.90
43858;DHT22;29507;51.284;5.758;2022-11-15T13:55:28;13.10;99.90
43858;DHT22;29507;51.284;5.758;2022-11-15T13:58:02;13.10;99.90
43858;DHT22;29507;51.284;5.758;2022-11-15T14:00:40;13.00;99.90
43858;DHT22;29507;51.284;5.758;2022-11-15T14:03:26;12.90;99.90
43858;DHT22;29507;51.284;5.758;2022-11-15T14:06:10;12.90;99.90
43858;DHT22;29507;51.284;5.758;2022-11-15T14:08:42;12.90;99.90
43858;DHT22;29507;51.284;5.758;2022-11-15T14:11:22;12.80;99.90
43858;DHT22;29507;51.284;5.758;2022-11-15T14:16:45;12.70;99.90
43858;DHT22;29507;51.284;5.758;2022-11-15T14:22:21;12.70;99.90
43858;DHT22;29507;51.284;5.758;2022-11-15T14:25:07;12.70;99.90
43858;DHT22;29507;51.284;5.758;2022-11-15T14:27:33;12.80;99.90
43858;DHT22;29507;51.284;5.758;2022-11-15T14:29:59;12.70;99.90
43858;DHT22;29507;51.284;5.758;2022-11-15T14:32:27;12.80;99.90
43858;DHT22;29507;51.284;5.758;2022-11-15T14:35:01;12.80;99.90
43858;DHT22;29507;51.284;5.758;2022-11-15T14:37:33;12.80;99.90
43858;DHT22;29507;51.284;5.758;2022-11-15T14:40:05;12.80;99.90
43858;DHT22;29507;51.284;5.758;2022-11-15T14:42:31;12.80;99.90
43858;DHT22;29507;51.284;5.758;2022-11-15T14:44:57;12.80;99.90
43858;DHT22;29507;51.284;5.758;2022-11-15T14:47:22;12.80;99.90
43858;DHT22;29507;51.284;5.758;2022-11-15T14:49:48;12.70;99.90
43858;DHT22;29507;51.284;5.758;2022-11-15T14:52:23;12.70;99.90
43858;DHT22;29507;51.284;5.758;2022-11-15T14:54:50;12.60;99.90
43858;DHT22;29507;51.284;5.758;2022-11-15T14:57:16;12.60;99.90
43858;DHT22;29507;51.284;5.758;2022-11-15T14:59:41;12.60;99.90
43858;DHT22;29507;51.284;5.758;2022-11-15T15:02:26;12.60;99.90
43858;DHT22;29507;51.284;5.758;2022-11-15T15:04:52;12.60;99.90
43858;DHT22;29507;51.284;5.758;2022-11-15T15:07:18;12.60;99.90
43858;DHT22;29507;51.284;5.758;2022-11-15T15:09:44;12.50;99.90
43858;DHT22;29507;51.284;5.758;2022-11-15T15:12:20;12.50;99.90
43858;DHT22;29507;51.284;5.758;2022-11-15T15:14:47;12.50;99.90
43858;DHT22;29507;51.284;5.758;2022-11-15T15:17:14;12.40;99.90
43858;DHT22;29507;51.284;5.758;2022-11-15T15:19:40;12.40;99.90
43858;DHT22;29507;51.284;5.758;2022-11-15T15:22:11;12.40;99.90
43858;DHT22;29507;51.284;5.758;2022-11-15T15:24:39;12.40;99.90
43858;DHT22;29507;51.284;5.758;2022-11-15T15:27:04;12.40;99.90
43858;DHT22;29507;51.284;5.758;2022-11-15T15:29:30;12.40;99.90
43858;DHT22;29507;51.284;5.758;2022-11-15T15:31:55;12.30;99.90
43858;DHT22;29507;51.284;5.758;2022-11-15T15:34:21;12.30;99.90
43858;DHT22;29507;51.284;5.758;2022-11-15T15:36:47;12.20;99.90
43858;DHT22;29507;51.284;5.758;2022-11-15T15:39:12;12.20;99.90
43858;DHT22;29507;51.284;5.758;2022-11-15T15:41:38;12.20;99.90
43858;DHT22;29507;51.284;5.758;2022-11-15T15:44:03;12.20;99.90
43858;DHT22;29507;51.284;5.758;2022-11-15T15:46:29;12.10;99.90
43858;DHT22;29507;51.284;5.758;2022-11-15T15:48:55;12.10;99.90
43858;DHT22;29507;51.284;5.758;2022-11-15T15:51:20;12.10;99.90
43858;DHT22;29507;51.284;5.758;2022-11-15T15:53:46;12.10;99.90
43858;DHT22;29507;51.284;5.758;2022-11-15T15:56:12;12.10;99.90
43858;DHT22;29507;51.284;5.758;2022-11-15T15:58:38;12.00;99.90
43858;DHT22;29507;51.284;5.758;2022-11-15T16:01:03;12.00;99.90
43858;DHT22;29507;51.284;5.758;2022-11-15T16:03:29;12.00;99.90
43858;DHT22;29507;51.284;5.758;2022-11-15T16:05:55;12.00;99.90
43858;DHT22;29507;51.284;5.758;2022-11-15T16:08:22;12.00;99.90
43858;DHT22;29507;51.284;5.758;2022-11-15T16:10:49;12.00;99.90
43858;DHT22;29507;51.284;5.758;2022-11-15T16:13:15;11.90;99.90
43858;DHT22;29507;51.284;5.758;2022-11-15T16:15:41;11.90;99.90
43858;DHT22;29507;51.284;5.758;2022-11-15T16:18:15;11.90;99.90
43858;DHT22;29507;51.284;5.758;2022-11-15T16:20:42;11.90;99.90
43858;DHT22;29507;51.284;5.758;2022-11-15T16:23:14;11.90;99.90
43858;DHT22;29507;51.284;5.758;2022-11-15T16:26:16;11.80;99.90
43858;DHT22;29507;51.284;5.758;2022-11-15T16:28:43;11.80;99.90
43858;DHT22;29507;51.284;5.758;2022-11-15T16:31:10;11.80;99.90
43858;DHT22;29507;51.284;5.758;2022-11-15T16:33:36;11.80;99.90
43858;DHT22;29507;51.284;5.758;2022-11-15T16:36:03;11.70;99.90
43858;DHT22;29507;51.284;5.758;2022-11-15T16:38:29;11.60;99.90
43858;DHT22;29507;51.284;5.758;2022-11-15T16:40:55;11.60;99.90
43858;DHT22;29507;51.284;5.758;2022-11-15T16:43:20;11.50;99.90
43858;DHT22;29507;51.284;5.758;2022-11-15T16:45:46;11.40;99.90
43858;DHT22;29507;51.284;5.758;2022-11-15T16:48:30;11.40;99.90
43858;DHT22;29507;51.284;5.758;2022-11-15T16:50:57;11.30;99.90
43858;DHT22;29507;51.284;5.758;2022-11-15T16:53:23;11.20;99.90
43858;DHT22;29507;51.284;5.758;2022-11-15T16:55:49;11.00;99.90
43858;DHT22;29507;51.284;5.758;2022-11-15T16:58:15;11.00;99.90
43858;DHT22;29507;51.284;5.758;2022-11-15T17:00:40;10.90;99.90
43858;DHT22;29507;51.284;5.758;2022-11-15T17:03:06;10.80;99.90
43858;DHT22;29507;51.284;5.758;2022-11-15T17:05:31;10.80;99.90
43858;DHT22;29507;51.284;5.758;2022-11-15T17:07:57;10.80;99.90
43858;DHT22;29507;51.284;5.758;2022-11-15T17:10:25;10.70;99.90
43858;DHT22;29507;51.284;5.758;2022-11-15T17:12:51;10.70;99.90
43858;DHT22;29507;51.284;5.758;2022-11-15T17:15:17;10.70;99.90
43858;DHT22;29507;51.284;5.758;2022-11-15T17:17:44;10.70;99.90
43858;DHT22;29507;51.284;5.758;2022-11-15T17:20:13;10.60;99.90
43858;DHT22;29507;51.284;5.758;2022-11-15T17:22:39;10.50;99.90
43858;DHT22;29507;51.284;5.758;2022-11-15T17:25:05;10.50;99.90
43858;DHT22;29507;51.284;5.758;2022-11-15T17:27:31;10.40;99.90
43858;DHT22;29507;51.284;5.758;2022-11-15T17:29:57;10.40;99.90
43858;DHT22;29507;51.284;5.758;2022-11-15T17:32:23;10.40;99.90
43858;DHT22;29507;51.284;5.758;2022-11-15T17:34:48;10.30;99.90
43858;DHT22;29507;51.284;5.758;2022-11-15T17:37:14;10.30;99.90
43858;DHT22;29507;51.284;5.758;2022-11-15T17:39:39;10.30;99.90
43858;DHT22;29507;51.284;5.758;2022-11-15T17:42:05;10.30;99.90
43858;DHT22;29507;51.284;5.758;2022-11-15T17:44:31;10.20;99.90
43858;DHT22;29507;51.284;5.758;2022-11-15T17:46:57;10.20;99.90
43858;DHT22;29507;51.284;5.758;2022-11-15T17:49:23;10.20;99.90